KFXY

Details ICAO KFXY
Name FOREST CITY MUNI
Region United States
Timezone America/Chicago (UTC-6.0)
Plans Departing 0
Arriving 0
Stats Elevation 1,230 ft / 375 m (AMSL)
Location 43.235506° -93.625120°
Runways 2
Magnetic Variation 0.671° E
Sunrise 2017-12-14 13:40:31 UTC / 2017-12-14 07:40:31 Local
Sunset 2017-12-14 22:40:53 UTC / 2017-12-14 16:40:53 Local
Advertisement - Login to hide

Runways

ID Width Length Bearing (true) Bearing (mag) Surface Threshold Offset Overrun Length
09 60 ft / 18 m 2,702 ft / 823 m 94.68° 94.01° Asphalt 0 ft / 0 m 0 ft / 0 m
15 100 ft / 30 m 5,809 ft / 1,771 m 154.93° 154.26° Asphalt 0 ft / 0 m 0 ft / 0 m
27 60 ft / 18 m 2,702 ft / 823 m 274.69° 274.02° Asphalt 0 ft / 0 m 0 ft / 0 m
33 100 ft / 30 m 5,809 ft / 1,771 m 334.93° 334.26° Asphalt 0 ft / 0 m 0 ft / 0 m

Map

Weather


0- 5 10 15 20 25 30 35+ Temperature / ° C

Clouds and Precipitation
Forecast for 2017-12-14 18:00 UTC. Updated 21 minutes ago

Ground ~20,000 ft ~40,000 ft Winds

METAR

KFXY 141735Z AUTO 28005KT 10SM OVC016 M03/M07 A3004 RMK AO2

TAF

Not found

Frequencies

Unicom 122.80 MHz CTAF/UNICOM
Warning: Do not use this data for real-world aviation or navigation. No guarantee of current accuracy is given.